createdAt,value
2023-02-24T00:02:06.248Z,78.70
2023-02-24T00:04:38.692Z,78.70
2023-02-24T00:07:10.480Z,78.70
2023-02-24T00:09:40.669Z,78.70
2023-02-24T00:12:15.443Z,78.80
2023-02-24T00:14:46.754Z,79.00
2023-02-24T00:17:16.321Z,78.90
2023-02-24T00:19:46.550Z,78.80
2023-02-24T00:22:15.898Z,78.80
2023-02-24T00:24:46.440Z,78.70
2023-02-24T00:27:17.317Z,78.70
2023-02-24T00:29:47.856Z,78.80
2023-02-24T00:32:17.481Z,78.90
2023-02-24T00:34:47.920Z,78.80
2023-02-24T00:37:23.939Z,79.00
2023-02-24T00:39:57.646Z,79.00
2023-02-24T00:42:28.477Z,78.90
2023-02-24T00:44:57.872Z,79.00
2023-02-24T00:47:27.266Z,78.90
2023-02-24T00:49:56.774Z,78.90
2023-02-24T00:52:27.921Z,79.00
2023-02-24T00:54:58.945Z,79.00
2023-02-24T00:57:35.490Z,79.00
2023-02-24T01:00:10.422Z,79.20
2023-02-24T01:02:39.786Z,79.10
2023-02-24T01:05:12.890Z,79.00
2023-02-24T01:07:42.250Z,79.10
2023-02-24T01:10:13.718Z,79.00
2023-02-24T01:12:54.147Z,78.80
2023-02-24T01:15:24.676Z,78.70
2023-02-24T01:17:54.200Z,78.80
2023-02-24T01:20:23.836Z,78.90
2023-02-24T01:22:54.721Z,78.90
2023-02-24T01:25:24.494Z,79.10
2023-02-24T01:27:55.218Z,79.00
2023-02-24T01:30:24.750Z,79.10
2023-02-24T01:32:54.263Z,79.00
2023-02-24T01:35:24.318Z,78.90
2023-02-24T01:37:53.853Z,78.90
2023-02-24T01:40:26.322Z,79.00
2023-02-24T01:42:57.456Z,79.00
2023-02-24T01:45:30.269Z,78.80
2023-02-24T01:48:03.488Z,78.90
2023-02-24T01:50:36.072Z,79.00
2023-02-24T01:53:08.849Z,79.00
2023-02-24T01:55:46.721Z,79.00
2023-02-24T01:58:26.174Z,79.10
2023-02-24T02:00:58.297Z,80.00
2023-02-24T02:03:32.921Z,79.10
2023-02-24T02:06:05.371Z,79.20
2023-02-24T02:08:37.674Z,79.20
2023-02-24T02:11:10.811Z,79.90
2023-02-24T02:13:45.824Z,79.30
2023-02-24T02:16:43.709Z,79.40
2023-02-24T02:19:58.018Z,79.50
2023-02-24T02:22:47.283Z,79.60
2023-02-24T02:25:25.514Z,79.20
2023-02-24T02:28:46.022Z,79.10
2023-02-24T02:31:51.114Z,79.30
2023-02-24T02:34:41.795Z,79.10
2023-02-24T02:37:16.058Z,79.10
2023-02-24T02:39:58.959Z,79.00
2023-02-24T02:42:32.274Z,79.20
2023-02-24T02:45:10.464Z,79.20
2023-02-24T02:47:45.374Z,79.10
2023-02-24T02:50:22.589Z,79.30
2023-02-24T02:52:57.796Z,79.50
2023-02-24T02:55:34.642Z,80.10
2023-02-24T02:58:09.296Z,79.40
2023-02-24T03:00:50.192Z,79.20
2023-02-24T03:03:21.182Z,79.10
2023-02-24T03:05:58.169Z,79.10
2023-02-24T03:08:34.437Z,79.30
2023-02-24T03:11:06.242Z,79.30
2023-02-24T03:13:41.856Z,79.20
2023-02-24T03:16:13.653Z,79.30
2023-02-24T03:18:51.057Z,79.40
2023-02-24T03:21:29.497Z,79.40
2023-02-24T03:23:59.204Z,79.50
2023-02-24T03:26:33.399Z,79.40
2023-02-24T03:29:11.115Z,79.40
2023-02-24T03:31:47.668Z,79.40
2023-02-24T03:34:23.971Z,79.30
2023-02-24T03:36:55.723Z,79.40
2023-02-24T03:39:26.109Z,79.20
2023-02-24T03:42:09.091Z,79.40
2023-02-24T03:44:38.560Z,79.50
2023-02-24T03:47:09.623Z,79.40
2023-02-24T03:49:43.668Z,80.10
2023-02-24T03:52:25.874Z,79.50
2023-02-24T03:55:13.960Z,79.70
2023-02-24T03:58:01.056Z,79.60
2023-02-24T04:00:56.350Z,79.50
2023-02-24T04:03:32.637Z,79.40
2023-02-24T04:06:21.274Z,79.30
2023-02-24T04:09:01.380Z,79.20
2023-02-24T04:11:43.920Z,79.40
2023-02-24T04:14:24.941Z,79.50
2023-02-24T04:17:01.222Z,79.50
2023-02-24T04:19:38.537Z,79.30
2023-02-24T04:22:11.874Z,79.20
2023-02-24T04:24:45.690Z,79.20
2023-02-24T04:27:17.393Z,79.20
2023-02-24T04:29:52.416Z,79.00
2023-02-24T04:32:27.060Z,79.10
2023-02-24T04:35:04.947Z,79.30
2023-02-24T04:37:37.278Z,79.50
2023-02-24T04:40:12.309Z,79.30
2023-02-24T04:42:46.676Z,79.50
2023-02-24T04:45:17.803Z,79.40
2023-02-24T04:47:51.301Z,79.40
2023-02-24T04:50:25.354Z,79.40
2023-02-24T04:52:56.976Z,79.40
2023-02-24T04:55:33.160Z,79.00
2023-02-24T04:58:03.450Z,78.90
2023-02-24T05:00:35.925Z,79.10
2023-02-24T05:03:07.972Z,79.20
2023-02-24T05:05:37.452Z,79.40
2023-02-24T05:08:09.911Z,79.30
2023-02-24T05:10:45.024Z,79.30
2023-02-24T05:13:17.352Z,79.30
2023-02-24T05:15:49.818Z,79.20
2023-02-24T05:18:20.329Z,79.30
2023-02-24T05:21:09.913Z,79.30
2023-02-24T05:23:44.328Z,79.50
2023-02-24T05:26:18.561Z,79.40
2023-02-24T05:28:52.287Z,79.50
2023-02-24T05:31:26.538Z,79.40
2023-02-24T05:33:58.839Z,79.50
2023-02-24T05:36:30.980Z,79.50
2023-02-24T05:39:06.815Z,79.50
2023-02-24T05:41:42.000Z,79.30
2023-02-24T05:44:16.847Z,79.20
2023-02-24T05:46:49.808Z,79.20
2023-02-24T05:49:23.503Z,79.10
2023-02-24T05:51:57.958Z,79.10
2023-02-24T05:54:30.198Z,79.20
2023-02-24T05:57:02.753Z,79.30
2023-02-24T05:59:33.765Z,79.20
2023-02-24T06:02:07.514Z,79.20
2023-02-24T06:04:46.676Z,79.20
2023-02-24T06:07:20.084Z,79.20
2023-02-24T06:09:53.848Z,79.20
2023-02-24T06:12:28.479Z,79.20
2023-02-24T06:14:59.217Z,79.30
2023-02-24T06:17:29.980Z,79.20
2023-02-24T06:19:59.951Z,79.20
2023-02-24T06:22:29.659Z,79.20
2023-02-24T06:24:59.027Z,79.20
2023-02-24T06:27:29.761Z,79.10
2023-02-24T06:29:59.162Z,79.20
2023-02-24T06:32:28.636Z,79.20
2023-02-24T06:34:59.450Z,79.30
2023-02-24T06:37:30.017Z,79.30
2023-02-24T06:39:59.519Z,79.40
2023-02-24T06:42:30.311Z,79.40
2023-02-24T06:44:59.937Z,79.50
2023-02-24T06:47:29.338Z,79.40
2023-02-24T06:49:58.706Z,79.40
2023-02-24T06:52:28.097Z,79.50
2023-02-24T06:54:57.775Z,79.60
2023-02-24T06:57:29.090Z,79.70
2023-02-24T06:59:59.930Z,79.70
2023-02-24T07:02:39.674Z,79.50
2023-02-24T07:05:14.566Z,79.60
2023-02-24T07:07:46.106Z,79.60
2023-02-24T07:10:15.754Z,79.60
2023-02-24T07:12:45.135Z,79.70
2023-02-24T07:15:17.816Z,79.60
2023-02-24T07:17:48.487Z,79.70
2023-02-24T07:20:25.645Z,79.70
2023-02-24T07:22:55.062Z,79.80
2023-02-24T07:25:33.413Z,79.80
2023-02-24T07:28:02.978Z,79.70
2023-02-24T07:30:34.630Z,79.60
2023-02-24T07:33:04.989Z,79.60
2023-02-24T07:35:35.629Z,79.70
2023-02-24T07:38:05.728Z,79.70
2023-02-24T07:40:36.486Z,79.80
2023-02-24T07:43:06.463Z,79.70
2023-02-24T07:45:37.309Z,79.70
2023-02-24T07:48:06.735Z,79.90
2023-02-24T07:50:38.207Z,79.90
2023-02-24T07:53:07.803Z,79.80
2023-02-24T07:55:38.054Z,79.70
2023-02-24T07:58:07.464Z,79.70
2023-02-24T08:00:58.816Z,79.90
2023-02-24T08:03:31.196Z,79.70
2023-02-24T08:06:13.095Z,79.40
2023-02-24T08:08:58.001Z,79.40
2023-02-24T08:11:34.662Z,79.40
2023-02-24T08:14:04.583Z,79.40
2023-02-24T08:16:40.779Z,79.40
2023-02-24T08:19:13.384Z,79.30
2023-02-24T08:21:47.473Z,79.40
2023-02-24T08:24:19.547Z,79.40
2023-02-24T08:27:05.254Z,80.20
2023-02-24T08:29:40.466Z,79.60
2023-02-24T08:32:12.264Z,79.60
2023-02-24T08:34:44.368Z,79.70
2023-02-24T08:37:15.811Z,79.70
2023-02-24T08:39:46.178Z,79.70
2023-02-24T08:42:15.645Z,79.70
2023-02-24T08:44:46.050Z,79.80
2023-02-24T08:47:21.275Z,79.80
2023-02-24T08:49:53.860Z,79.60
2023-02-24T08:52:23.380Z,79.70
2023-02-24T08:54:54.645Z,79.60
2023-02-24T08:57:26.149Z,79.60
2023-02-24T08:59:58.740Z,79.40
2023-02-24T09:02:29.989Z,80.10
2023-02-24T09:05:03.726Z,79.40
2023-02-24T09:07:36.863Z,79.40
2023-02-24T09:10:11.707Z,79.30
2023-02-24T09:12:43.557Z,79.40
2023-02-24T09:15:15.861Z,79.70
2023-02-24T09:18:01.441Z,79.80
2023-02-24T09:20:48.042Z,80.10
2023-02-24T09:23:21.113Z,80.30
2023-02-24T09:25:54.716Z,80.30
2023-02-24T09:28:26.747Z,80.50
2023-02-24T09:30:58.952Z,80.80
2023-02-24T09:33:39.063Z,80.90
2023-02-24T09:36:13.087Z,81.20
2023-02-24T09:39:09.821Z,81.60
2023-02-24T09:41:57.006Z,81.40
2023-02-24T09:44:34.470Z,81.10
2023-02-24T09:47:20.015Z,80.90
2023-02-24T09:49:56.729Z,81.30
2023-02-24T09:52:39.924Z,80.90
2023-02-24T09:55:26.174Z,81.30
2023-02-24T09:58:43.074Z,81.10
2023-02-24T10:01:31.163Z,81.20
2023-02-24T10:04:20.253Z,80.30
2023-02-24T10:07:05.717Z,80.50
2023-02-24T10:09:38.765Z,79.70
2023-02-24T10:12:17.403Z,78.90
2023-02-24T10:15:00.546Z,78.70
2023-02-24T10:17:40.402Z,78.00
2023-02-24T10:20:31.100Z,77.70
2023-02-24T10:23:09.872Z,76.90
2023-02-24T10:25:54.249Z,76.70
2023-02-24T10:28:36.869Z,76.60
2023-02-24T10:31:25.316Z,76.30
2023-02-24T10:34:01.175Z,76.20
2023-02-24T10:36:36.320Z,76.40
2023-02-24T10:39:20.579Z,76.30
2023-02-24T10:41:57.559Z,75.90
2023-02-24T10:44:36.497Z,76.10
2023-02-24T10:47:14.335Z,76.50
2023-02-24T10:49:57.258Z,76.40
2023-02-24T10:52:45.615Z,77.30
2023-02-24T10:55:39.334Z,76.10
2023-02-24T10:58:27.826Z,75.80
2023-02-24T11:01:12.719Z,76.30
2023-02-24T11:04:02.172Z,75.80
2023-02-24T11:06:51.490Z,75.80
2023-02-24T11:09:35.041Z,76.40
2023-02-24T11:12:33.300Z,76.20
2023-02-24T11:15:25.455Z,75.70
2023-02-24T11:17:58.435Z,75.60
2023-02-24T11:20:48.079Z,75.40
2023-02-24T11:23:24.566Z,75.10
2023-02-24T11:26:00.100Z,75.40
2023-02-24T11:28:56.012Z,75.50
2023-02-24T11:31:41.279Z,74.90
2023-02-24T11:34:21.638Z,75.40
2023-02-24T11:37:02.896Z,75.40
2023-02-24T11:39:50.084Z,74.90
2023-02-24T11:42:28.136Z,74.60
2023-02-24T11:45:06.568Z,74.70
2023-02-24T11:47:43.596Z,74.30
2023-02-24T11:50:30.850Z,75.70
2023-02-24T11:53:06.327Z,74.30
2023-02-24T11:55:42.621Z,74.40
2023-02-24T11:58:20.653Z,74.40
2023-02-24T12:00:59.003Z,74.00
2023-02-24T12:03:36.971Z,73.90
2023-02-24T12:06:18.506Z,74.00
2023-02-24T12:08:53.998Z,73.40
2023-02-24T12:11:35.589Z,73.60
2023-02-24T12:14:37.483Z,73.90
2023-02-24T12:17:19.033Z,73.40
2023-02-24T12:20:01.698Z,73.90
2023-02-24T12:22:40.014Z,73.10
2023-02-24T12:25:15.117Z,73.30
2023-02-24T12:27:59.740Z,73.60
2023-02-24T12:30:49.696Z,73.10
2023-02-24T12:33:43.861Z,73.40
2023-02-24T12:36:30.782Z,73.60
2023-02-24T12:39:09.524Z,73.90
2023-02-24T12:42:04.961Z,73.70
2023-02-24T12:44:46.004Z,73.60
2023-02-24T12:47:18.684Z,73.30
2023-02-24T12:50:23.333Z,73.60
2023-02-24T12:53:01.625Z,74.10
2023-02-24T12:55:42.538Z,73.70
2023-02-24T12:58:17.592Z,73.60
2023-02-24T13:01:03.372Z,73.90
2023-02-24T13:03:56.485Z,73.60
2023-02-24T13:06:41.587Z,73.60
2023-02-24T13:09:22.794Z,74.60
2023-02-24T13:11:56.654Z,73.90
2023-02-24T13:14:31.832Z,74.80
2023-02-24T13:17:19.874Z,74.00
2023-02-24T13:19:52.207Z,73.60
2023-02-24T13:22:30.454Z,74.10
2023-02-24T13:25:19.927Z,73.70
2023-02-24T13:28:00.843Z,73.90
2023-02-24T13:30:42.020Z,73.60
2023-02-24T13:33:29.698Z,73.80
2023-02-24T13:36:14.546Z,73.60
2023-02-24T13:38:50.118Z,73.50
2023-02-24T13:41:40.634Z,73.80
2023-02-24T13:44:27.801Z,73.70
2023-02-24T13:47:30.264Z,74.10
2023-02-24T13:50:20.838Z,72.70
2023-02-24T13:53:23.684Z,73.10
2023-02-24T13:56:15.153Z,72.80
2023-02-24T13:59:25.176Z,73.70
2023-02-24T14:02:01.049Z,73.40
2023-02-24T14:04:33.335Z,73.40
2023-02-24T14:07:11.732Z,73.30
2023-02-24T14:09:45.754Z,73.20
2023-02-24T14:12:20.795Z,72.80
2023-02-24T14:14:51.128Z,72.40
2023-02-24T14:17:28.544Z,72.50
2023-02-24T14:20:11.117Z,72.10
2023-02-24T14:22:45.643Z,72.40
2023-02-24T14:25:15.793Z,72.00
2023-02-24T14:27:49.373Z,72.40
2023-02-24T14:30:29.031Z,72.10
2023-02-24T14:32:58.510Z,72.30
2023-02-24T14:35:36.006Z,73.30
2023-02-24T14:38:06.497Z,72.50
2023-02-24T14:40:35.518Z,73.00
2023-02-24T14:43:16.239Z,73.00
2023-02-24T14:45:51.340Z,72.50
2023-02-24T14:48:27.666Z,73.40
2023-02-24T14:51:00.665Z,73.30
2023-02-24T14:53:31.516Z,73.60
2023-02-24T14:56:05.856Z,73.30
2023-02-24T14:58:44.431Z,72.90
2023-02-24T15:01:24.068Z,72.40
2023-02-24T15:03:57.124Z,72.10
2023-02-24T15:06:30.837Z,72.50
2023-02-24T15:09:04.854Z,73.20
2023-02-24T15:11:37.168Z,72.40
2023-02-24T15:14:20.922Z,73.20
2023-02-24T15:16:54.589Z,72.80
2023-02-24T15:19:28.395Z,72.70
2023-02-24T15:21:57.456Z,72.70
2023-02-24T15:24:30.004Z,72.70
2023-02-24T15:27:02.319Z,72.70
2023-02-24T15:29:33.075Z,72.00
2023-02-24T15:32:07.337Z,72.30
2023-02-24T15:34:38.212Z,72.30
2023-02-24T15:37:17.206Z,72.10
2023-02-24T15:39:46.744Z,71.20
2023-02-24T15:42:28.373Z,71.60
2023-02-24T15:45:00.653Z,71.10
2023-02-24T15:47:33.580Z,71.60
2023-02-24T15:50:02.618Z,71.70
2023-02-24T15:52:31.772Z,72.70
2023-02-24T15:55:02.589Z,72.00
2023-02-24T15:57:33.607Z,71.90
2023-02-24T16:00:11.552Z,72.30
2023-02-24T16:02:41.524Z,71.90
2023-02-24T16:05:15.136Z,72.10
2023-02-24T16:07:46.387Z,71.60
2023-02-24T16:10:22.573Z,71.70
2023-02-24T16:12:55.076Z,71.70
2023-02-24T16:15:30.429Z,72.00
2023-02-24T16:17:59.794Z,72.00
2023-02-24T16:20:32.485Z,71.80
2023-02-24T16:23:04.332Z,71.80
2023-02-24T16:25:39.408Z,71.90
2023-02-24T16:28:08.478Z,72.70
2023-02-24T16:30:39.147Z,72.10
2023-02-24T16:33:11.770Z,72.10
2023-02-24T16:35:42.358Z,72.20
2023-02-24T16:38:15.229Z,71.90
2023-02-24T16:40:47.322Z,71.80
2023-02-24T16:43:17.313Z,71.80
2023-02-24T16:45:48.182Z,72.50
2023-02-24T16:48:21.959Z,71.80
2023-02-24T16:50:51.955Z,71.50
2023-02-24T16:53:23.737Z,71.70
2023-02-24T16:55:52.822Z,71.80
2023-02-24T16:58:23.334Z,72.80
2023-02-24T17:00:59.015Z,72.00
2023-02-24T17:03:39.769Z,71.90
2023-02-24T17:06:09.040Z,72.20
2023-02-24T17:08:38.228Z,71.90
2023-02-24T17:11:07.924Z,71.70
2023-02-24T17:13:37.157Z,71.80
2023-02-24T17:16:10.268Z,71.70
2023-02-24T17:18:39.298Z,71.60
2023-02-24T17:21:08.352Z,71.50
2023-02-24T17:23:37.422Z,71.10
2023-02-24T17:26:06.880Z,71.30
2023-02-24T17:28:35.874Z,71.10
2023-02-24T17:31:09.030Z,70.90
2023-02-24T17:33:38.111Z,70.80
2023-02-24T17:36:07.599Z,70.70
2023-02-24T17:38:39.602Z,70.90
2023-02-24T17:41:08.624Z,70.70
2023-02-24T17:43:37.606Z,70.70
2023-02-24T17:46:07.480Z,71.10
2023-02-24T17:48:37.988Z,71.10
2023-02-24T17:51:07.164Z,70.90
2023-02-24T17:53:36.168Z,71.00
2023-02-24T17:56:07.446Z,71.00
2023-02-24T17:58:36.971Z,70.90
2023-02-24T18:01:07.796Z,70.60
2023-02-24T18:03:38.499Z,70.30
2023-02-24T18:06:10.369Z,70.50
2023-02-24T18:08:40.816Z,70.70
2023-02-24T18:11:13.857Z,70.60
2023-02-24T18:13:42.916Z,70.70
2023-02-24T18:16:14.181Z,70.90
2023-02-24T18:18:44.611Z,70.50
2023-02-24T18:21:13.990Z,70.30
2023-02-24T18:23:43.169Z,70.80
2023-02-24T18:26:13.909Z,71.00
2023-02-24T18:28:43.286Z,71.30
2023-02-24T18:31:15.095Z,72.10
2023-02-24T18:33:47.866Z,71.30
2023-02-24T18:36:20.923Z,71.10
2023-02-24T18:38:50.233Z,71.50
2023-02-24T18:41:23.393Z,71.30
2023-02-24T18:43:55.745Z,71.60
2023-02-24T18:46:28.131Z,71.80
2023-02-24T18:48:58.876Z,71.90
2023-02-24T18:51:29.050Z,72.00
2023-02-24T18:54:00.572Z,71.90
2023-02-24T18:56:32.317Z,71.60
2023-02-24T18:59:05.217Z,71.50
2023-02-24T19:01:36.924Z,71.60
2023-02-24T19:04:08.812Z,71.80
2023-02-24T19:06:38.105Z,71.60
2023-02-24T19:09:10.851Z,71.70
2023-02-24T19:11:41.383Z,71.90
2023-02-24T19:14:13.873Z,72.10
2023-02-24T19:16:43.260Z,72.10
2023-02-24T19:19:16.050Z,72.90
2023-02-24T19:21:45.907Z,72.40
2023-02-24T19:24:15.306Z,73.20
2023-02-24T19:26:45.922Z,72.40
2023-02-24T19:29:16.336Z,72.70
2023-02-24T19:31:45.729Z,72.50
2023-02-24T19:34:16.445Z,72.10
2023-02-24T19:36:48.422Z,72.10
2023-02-24T19:39:18.649Z,72.20
2023-02-24T19:41:49.687Z,72.20
2023-02-24T19:44:21.453Z,72.10
2023-02-24T19:46:53.160Z,72.30
2023-02-24T19:49:23.522Z,72.30
2023-02-24T19:51:55.227Z,72.00
2023-02-24T19:54:27.957Z,71.90
2023-02-24T19:56:57.881Z,71.90
2023-02-24T19:59:27.180Z,71.90
2023-02-24T20:01:56.253Z,72.00
2023-02-24T20:04:26.719Z,72.20
2023-02-24T20:06:55.706Z,72.30
2023-02-24T20:09:24.905Z,72.20
2023-02-24T20:11:57.252Z,72.40
2023-02-24T20:14:30.635Z,72.60
2023-02-24T20:17:00.445Z,72.70
2023-02-24T20:19:34.658Z,72.90
2023-02-24T20:22:04.527Z,72.90
2023-02-24T20:24:35.812Z,73.70
2023-02-24T20:27:05.236Z,73.40
2023-02-24T20:29:35.303Z,73.50
2023-02-24T20:32:04.823Z,74.30
2023-02-24T20:34:37.527Z,74.20
2023-02-24T20:37:07.552Z,73.60
2023-02-24T20:39:36.627Z,73.40
2023-02-24T20:42:05.714Z,73.30
2023-02-24T20:44:34.830Z,73.40
2023-02-24T20:47:03.904Z,73.30
2023-02-24T20:49:34.355Z,73.50
2023-02-24T20:52:06.615Z,73.70
2023-02-24T20:54:36.054Z,73.80
2023-02-24T20:57:05.280Z,74.60
2023-02-24T20:59:34.276Z,74.00
2023-02-24T21:02:03.299Z,74.90
2023-02-24T21:04:32.318Z,75.00
2023-02-24T21:07:02.850Z,75.00
2023-02-24T21:09:37.116Z,74.40
2023-02-24T21:12:09.633Z,74.30
2023-02-24T21:14:38.773Z,74.10
2023-02-24T21:17:08.244Z,74.50
2023-02-24T21:19:37.271Z,74.50
2023-02-24T21:22:07.766Z,74.50
2023-02-24T21:24:36.804Z,74.80
2023-02-24T21:27:05.829Z,74.60
2023-02-24T21:29:34.892Z,74.70
2023-02-24T21:32:04.376Z,74.80
2023-02-24T21:34:33.439Z,74.80
2023-02-24T21:37:02.625Z,74.90
2023-02-24T21:39:33.268Z,74.90
2023-02-24T21:42:02.256Z,75.10
2023-02-24T21:44:31.560Z,74.90
2023-02-24T21:47:00.531Z,74.70
2023-02-24T21:49:30.257Z,74.60
2023-02-24T21:51:59.252Z,74.60
2023-02-24T21:54:28.630Z,74.70
2023-02-24T21:56:59.148Z,74.90
2023-02-24T21:59:28.238Z,74.80
2023-02-24T22:01:57.588Z,74.60
2023-02-24T22:04:26.607Z,74.60
2023-02-24T22:06:55.681Z,74.60
2023-02-24T22:09:25.573Z,74.60
2023-02-24T22:11:54.548Z,75.40
2023-02-24T22:14:24.940Z,74.60
2023-02-24T22:16:56.979Z,74.70
2023-02-24T22:19:26.185Z,74.90
2023-02-24T22:21:55.164Z,75.10
2023-02-24T22:24:24.144Z,75.00
2023-02-24T22:26:55.378Z,74.90
2023-02-24T22:29:25.716Z,75.00
2023-02-24T22:31:54.743Z,75.10
2023-02-24T22:34:23.769Z,75.00
2023-02-24T22:36:53.647Z,75.10
2023-02-24T22:39:23.306Z,75.10
2023-02-24T22:41:52.914Z,75.80
2023-02-24T22:44:21.917Z,75.10
2023-02-24T22:46:52.374Z,75.00
2023-02-24T22:49:21.416Z,75.00
2023-02-24T22:51:50.559Z,75.00
2023-02-24T22:54:22.234Z,74.90
2023-02-24T22:56:51.235Z,74.90
2023-02-24T22:59:20.245Z,75.00
2023-02-24T23:01:49.244Z,75.10
2023-02-24T23:04:19.758Z,75.20
2023-02-24T23:06:48.805Z,75.40
2023-02-24T23:09:19.889Z,75.40
2023-02-24T23:11:49.659Z,75.40
2023-02-24T23:14:18.887Z,76.10
2023-02-24T23:16:55.473Z,75.10
2023-02-24T23:19:25.975Z,75.10
2023-02-24T23:21:56.472Z,75.20
2023-02-24T23:24:25.694Z,75.20
2023-02-24T23:26:57.705Z,75.00
2023-02-24T23:29:30.806Z,74.70
2023-02-24T23:32:00.035Z,74.70
2023-02-24T23:34:30.611Z,74.50
2023-02-24T23:36:59.649Z,74.40
2023-02-24T23:39:28.999Z,75.10
2023-02-24T23:41:58.009Z,74.30
2023-02-24T23:44:27.190Z,74.30
2023-02-24T23:46:58.190Z,74.60
2023-02-24T23:49:39.064Z,74.50
2023-02-24T23:52:13.145Z,74.50
2023-02-24T23:54:42.117Z,74.50
2023-02-24T23:57:11.528Z,74.30
2023-02-24T23:59:40.524Z,74.50
